Time;durP1;ratioP1;P1;durP2;ratioP2;P2;SDS_P1;SDS_P2;PMS_P1;PMS_P2;Temp;Humidity;BMP_temperature;BMP_pressure;BME280_temperature;BME280_humidity;BME280_pressure;Samples;Min_cycle;Max_cycle;Signal;HPM_P1;HPM_P2
2023/10/28 00:04:47;;;;;;;23.90;13.50;;;;;;;7.22;100.00;98484.94;663662;1272;139034;-80
2023/10/28 00:19:50;;;;;;;29.20;14.60;;;;;;;7.08;100.00;98487.52;668068;1274;139226;-81
2023/10/28 00:34:54;;;;;;;23.90;12.80;;;;;;;7.17;100.00;98488.68;668642;1268;139066;-82
2023/10/28 00:49:58;;;;;;;20.20;10.70;;;;;;;7.32;100.00;98491.21;675866;1267;138518;-81
2023/10/28 01:05:02;;;;;;;26.50;12.20;;;;;;;7.41;100.00;98499.78;668017;1262;138762;-81
2023/10/28 01:20:09;;;;;;;22.30;11.50;;;;;;;7.50;100.00;98513.86;670159;1262;139371;-80
2023/10/28 01:35:13;;;;;;;21.30;10.80;;;;;;;7.45;100.00;98511.52;670292;1265;139499;-81
2023/10/28 01:50:20;;;;;;;26.80;14.00;;;;;;;7.42;100.00;98525.81;668260;1264;138530;-81
2023/10/28 02:05:24;;;;;;;16.20;8.90;;;;;;;7.40;100.00;98530.37;667809;1283;139733;-80
2023/10/28 02:20:28;;;;;;;17.40;9.10;;;;;;;7.57;100.00;98536.23;667515;1267;139192;-81
2023/10/28 02:35:31;;;;;;;20.10;10.00;;;;;;;7.73;100.00;98547.02;670023;1265;139349;-81
2023/10/28 02:50:36;;;;;;;16.90;9.60;;;;;;;7.77;100.00;98558.37;670505;1265;139537;-81
2023/10/28 03:05:39;;;;;;;17.00;8.00;;;;;;;7.77;100.00;98570.90;668438;1267;139018;-80
2023/10/28 03:20:43;;;;;;;16.20;8.60;;;;;;;7.81;100.00;98588.80;671709;1263;138911;-81
2023/10/28 03:46:49;;;;;;;22.60;11.80;;;;;;;7.98;100.00;98609.11;652294;1298;545487;-80
2023/10/28 04:01:53;;;;;;;15.50;8.80;;;;;;;7.99;100.00;98615.13;668345;1274;139044;-80
2023/10/28 04:16:56;;;;;;;16.00;8.30;;;;;;;8.04;100.00;98624.92;668106;1270;138854;-79
2023/10/28 04:31:59;;;;;;;13.80;7.90;;;;;;;7.99;100.00;98627.52;667549;1271;138338;-80
2023/10/28 04:47:03;;;;;;;17.40;8.20;;;;;;;7.91;100.00;98635.80;667593;1270;138438;-81
2023/10/28 05:02:06;;;;;;;14.80;8.50;;;;;;;7.99;100.00;98654.27;668502;1271;139939;-80
2023/10/28 05:17:10;;;;;;;20.20;10.80;;;;;;;8.04;100.00;98667.39;666677;1270;138290;-80
2023/10/28 05:32:13;;;;;;;17.10;9.60;;;;;;;8.03;100.00;98686.29;665444;1276;138764;-82
2023/10/28 05:47:16;;;;;;;16.50;9.40;;;;;;;8.03;100.00;98707.70;672337;1268;138132;-81
2023/10/28 06:02:19;;;;;;;24.50;13.20;;;;;;;7.94;100.00;98723.23;673229;1270;139203;-82
2023/10/28 06:17:24;;;;;;;39.80;19.90;;;;;;;7.91;100.00;98741.83;666430;1269;139845;-81
2023/10/28 06:53:45;;;;;;;36.60;18.40;;;;;;;8.11;100.00;98780.51;653760;1297;545097;-81
2023/10/28 07:08:48;;;;;;;76.20;29.00;;;;;;;8.21;100.00;98786.12;665573;1275;139075;-81
2023/10/28 07:23:52;;;;;;;46.60;22.50;;;;;;;8.49;100.00;98807.89;669008;1274;139050;-81
2023/10/28 07:38:55;;;;;;;37.90;17.00;;;;;;;8.53;100.00;98827.75;665359;1285;138535;-80
2023/10/28 07:53:58;;;;;;;69.20;30.40;;;;;;;8.59;100.00;98845.59;666719;1272;138685;-80
2023/10/28 08:09:06;;;;;;;59.30;24.60;;;;;;;8.64;100.00;98865.77;668226;1275;140219;-80
2023/10/28 08:24:12;;;;;;;90.70;39.80;;;;;;;8.53;100.00;98883.45;669277;1275;139184;-80
2023/10/28 08:39:15;;;;;;;69.40;30.50;;;;;;;8.94;100.00;98895.19;676369;1269;138983;-77
2023/10/28 08:54:19;;;;;;;82.60;34.80;;;;;;;9.14;100.00;98904.96;672205;1268;138659;-78
2023/10/28 09:11:45;;;;;;;39.30;22.40;;;;;;;9.63;100.00;98922.02;656619;1304;545151;-79
2023/10/28 09:26:52;;;;;;;78.60;36.20;;;;;;;9.47;100.00;98941.97;671205;1275;139310;-78
2023/10/28 09:41:59;;;;;;;93.30;61.10;;;;;;;9.51;100.00;98958.17;665675;1275;138596;-80
2023/10/28 09:57:03;;;;;;;60.80;30.50;;;;;;;9.67;100.00;98971.23;664993;1270;138451;-80
2023/10/28 10:12:06;;;;;;;20.10;11.50;;;;;;;9.88;100.00;98984.90;673508;1276;139193;-81
2023/10/28 10:27:10;;;;;;;22.20;11.60;;;;;;;10.12;100.00;98999.95;672116;1269;139444;-80
2023/10/28 10:42:13;;;;;;;17.10;10.10;;;;;;;10.21;100.00;99005.00;671590;1269;139562;-80
2023/10/28 10:57:17;;;;;;;23.50;13.70;;;;;;;10.40;100.00;99020.92;671717;1264;139533;-79
2023/10/28 11:12:24;;;;;;;19.50;12.30;;;;;;;10.56;100.00;99021.15;672089;1264;139815;-81
2023/10/28 11:27:28;;;;;;;25.70;14.60;;;;;;;10.63;100.00;99025.19;678324;1267;138961;-81
2023/10/28 11:42:32;;;;;;;25.60;14.60;;;;;;;11.54;100.00;99043.00;672823;1268;141216;-79
2023/10/28 11:57:36;;;;;;;13.20;8.50;;;;;;;11.26;100.00;99054.66;673726;1268;139644;-82
2023/10/28 12:12:39;;;;;;;33.10;16.10;;;;;;;10.94;100.00;99060.07;671824;1268;140131;-83
2023/10/28 12:27:44;;;;;;;18.80;10.30;;;;;;;10.84;99.79;99073.05;670419;1267;139116;-80
2023/10/28 12:42:49;;;;;;;15.40;10.30;;;;;;;10.69;99.18;99081.30;672410;1265;139340;-83
2023/10/28 12:57:52;;;;;;;21.80;12.10;;;;;;;10.80;99.24;99095.34;676223;1263;139737;-82
2023/10/28 13:12:58;;;;;;;18.00;10.90;;;;;;;10.73;99.57;99109.56;672415;1260;139307;-81
2023/10/28 13:28:01;;;;;;;19.20;11.50;;;;;;;10.62;99.37;99121.59;671765;1267;139684;-82
2023/10/28 13:43:07;;;;;;;17.10;9.40;;;;;;;10.55;98.24;99142.61;673156;1262;139478;-83
2023/10/28 13:58:10;;;;;;;29.80;17.50;;;;;;;10.56;98.24;99158.27;668257;1262;138935;-80
2023/10/28 14:13:13;;;;;;;38.40;16.80;;;;;;;10.90;98.41;99168.81;670587;1265;138875;-82
2023/10/28 14:28:17;;;;;;;70.00;37.10;;;;;;;10.30;97.71;99173.02;680131;1261;138998;-81
2023/10/28 14:43:20;;;;;;;147.80;61.80;;;;;;;10.14;98.79;99178.63;676729;1260;139129;-82
2023/10/28 14:58:24;;;;;;;121.60;54.60;;;;;;;10.00;98.68;99182.36;673799;1265;139136;-81
2023/10/28 15:13:35;;;;;;;97.20;43.40;;;;;;;9.93;99.76;99188.16;670144;1276;139034;-82
2023/10/28 15:28:40;;;;;;;62.90;29.80;;;;;;;9.73;99.67;99190.56;668718;1263;138286;-81
2023/10/28 15:43:44;;;;;;;98.90;41.50;;;;;;;9.57;99.81;99209.83;676408;1259;139398;-82
2023/10/28 15:58:49;;;;;;;208.70;75.60;;;;;;;9.56;99.95;99228.22;679528;1260;138656;-81
2023/10/28 16:13:52;;;;;;;361.20;144.00;;;;;;;9.52;99.95;99236.99;675562;1260;139777;-81
2023/10/28 16:28:57;;;;;;;292.40;119.60;;;;;;;9.49;100.00;99250.92;669530;1261;139161;-82
2023/10/28 16:44:08;;;;;;;174.30;73.10;;;;;;;9.28;100.00;99271.24;673066;1262;139249;-82
2023/10/28 16:59:11;;;;;;;114.20;55.90;;;;;;;9.23;100.00;99302.02;672597;1263;138999;-81
2023/10/28 17:14:15;;;;;;;484.80;161.80;;;;;;;9.23;100.00;99309.80;669306;1263;154870;-82
2023/10/28 17:29:20;;;;;;;209.70;69.20;;;;;;;9.27;100.00;99312.89;672060;1264;140261;-82
2023/10/28 17:44:26;;;;;;;121.60;58.70;;;;;;;9.27;100.00;99322.66;672836;1265;139190;-81
2023/10/28 17:59:30;;;;;;;92.30;42.00;;;;;;;9.29;100.00;99335.58;670298;1261;139628;-82
2023/10/28 18:14:33;;;;;;;119.90;52.70;;;;;;;9.18;100.00;99335.95;678436;1264;138966;-82
2023/10/28 18:29:36;;;;;;;89.00;37.10;;;;;;;9.16;100.00;99346.02;678735;1261;139110;-82
2023/10/28 18:44:40;;;;;;;198.10;98.80;;;;;;;9.43;100.00;99370.99;680282;1259;138903;-82
2023/10/28 18:59:44;;;;;;;97.50;38.90;;;;;;;9.10;100.00;99376.48;678626;1260;139632;-81
2023/10/28 19:14:47;;;;;;;34.60;18.90;;;;;;;8.96;100.00;99382.73;671632;1267;139222;-83
2023/10/28 19:29:55;;;;;;;26.40;16.20;;;;;;;8.75;100.00;99407.17;680623;1263;139591;-80
2023/10/28 19:44:58;;;;;;;98.30;39.50;;;;;;;8.77;100.00;99432.38;673786;1264;138419;-81
2023/10/28 20:00:04;;;;;;;64.70;26.70;;;;;;;8.86;100.00;99455.27;677886;1264;139875;-79
2023/10/28 20:15:08;;;;;;;65.50;26.10;;;;;;;8.86;100.00;99468.91;674166;1263;138743;-81
2023/10/28 20:30:12;;;;;;;105.00;38.60;;;;;;;8.79;100.00;99474.96;674930;1264;141080;-80
2023/10/28 20:45:20;;;;;;;97.70;35.70;;;;;;;8.79;100.00;99483.30;679021;1262;141624;-80
2023/10/28 21:00:24;;;;;;;104.50;40.40;;;;;;;8.86;100.00;99493.27;675055;1261;140312;-80
2023/10/28 21:15:27;;;;;;;33.20;15.90;;;;;;;8.79;100.00;99502.27;668679;1267;140510;-81
2023/10/28 21:30:31;;;;;;;20.60;11.00;;;;;;;8.81;100.00;99517.34;674092;1264;139066;-81
2023/10/28 21:45:38;;;;;;;23.10;13.60;;;;;;;8.78;100.00;99519.64;676140;1261;138743;-80
2023/10/28 22:00:42;;;;;;;39.10;18.90;;;;;;;8.63;100.00;99512.30;675023;1266;139167;-81
2023/10/28 22:15:46;;;;;;;30.80;14.70;;;;;;;8.63;100.00;99517.95;674560;1263;141332;-81
2023/10/28 22:30:49;;;;;;;55.00;25.90;;;;;;;8.54;100.00;99536.71;672055;1262;139648;-80
2023/10/28 22:45:52;;;;;;;36.10;18.10;;;;;;;8.48;100.00;99541.07;669751;1267;140391;-81
2023/10/28 23:01:01;;;;;;;30.70;14.90;;;;;;;8.46;100.00;99544.00;678248;1261;139317;-81
2023/10/28 23:16:05;;;;;;;17.60;9.90;;;;;;;8.46;100.00;99550.80;671299;1265;138446;-81
2023/10/28 23:31:08;;;;;;;36.10;17.20;;;;;;;8.46;100.00;99557.64;673680;1269;139203;-81
2023/10/28 23:46:11;;;;;;;67.50;25.20;;;;;;;8.77;99.97;99557.90;671815;1264;139161;-81
